createdAt,value
2018-01-07T00:00:16.475Z,1011.36
2018-01-07T00:01:25.239Z,1011.3
2018-01-07T00:02:34.193Z,1011.34
2018-01-07T00:03:43.406Z,1011.32
2018-01-07T00:04:52.350Z,1011.36
2018-01-07T00:06:01.556Z,1011.39
2018-01-07T00:07:10.751Z,1011.43
2018-01-07T00:08:20.222Z,1011.47
2018-01-07T00:09:29.172Z,1011.47
2018-01-07T00:10:38.377Z,1011.5
2018-01-07T00:11:47.847Z,1011.54
2018-01-07T00:12:57.062Z,1011.53
2018-01-07T00:14:06.276Z,1011.55
2018-01-07T00:15:15.210Z,1011.59
2018-01-07T00:16:24.427Z,1011.58
2018-01-07T00:17:33.640Z,1011.61
2018-01-07T00:18:43.627Z,1011.55
2018-01-07T00:19:52.578Z,1011.63
2018-01-07T00:21:01.810Z,1011.61
2018-01-07T00:22:10.485Z,1011.66
2018-01-07T00:23:20.037Z,1011.64
2018-01-07T00:24:29.010Z,1011.64
2018-01-07T00:25:37.693Z,1011.68
2018-01-07T00:26:46.647Z,1011.67
2018-01-07T00:27:55.599Z,1011.72
2018-01-07T00:29:04.819Z,1011.72
2018-01-07T00:30:14.280Z,1011.76
2018-01-07T00:31:23.509Z,1011.76
2018-01-07T00:32:32.189Z,1011.75
2018-01-07T00:33:41.147Z,1011.76
2018-01-07T00:34:50.077Z,1011.75
2018-01-07T00:35:58.782Z,1011.73
2018-01-07T00:37:07.976Z,1011.74
2018-01-07T00:38:16.907Z,1011.78
2018-01-07T00:39:26.118Z,1011.76
2018-01-07T00:40:35.316Z,1011.8
2018-01-07T00:41:44.248Z,1011.84
2018-01-07T00:42:53.748Z,1011.84
2018-01-07T00:44:02.951Z,1011.84
2018-01-07T00:45:11.889Z,1011.84
2018-01-07T00:46:21.113Z,1011.85
2018-01-07T00:47:30.574Z,1011.83
2018-01-07T00:48:39.512Z,1011.84
2018-01-07T00:49:48.996Z,1011.85
2018-01-07T00:50:57.934Z,1011.87
2018-01-07T00:52:06.611Z,1011.9
2018-01-07T00:53:15.815Z,1011.93
2018-01-07T00:54:25.016Z,1011.96
2018-01-07T00:55:33.690Z,1011.95
2018-01-07T00:56:43.410Z,1011.99
2018-01-07T00:57:53.048Z,1012.01
2018-01-07T00:59:01.999Z,1012.09
2018-01-07T01:00:12.010Z,1012.1
2018-01-07T01:01:21.270Z,1012.14
2018-01-07T01:02:30.209Z,1012.13
2018-01-07T01:03:39.402Z,1012.18
2018-01-07T01:04:48.333Z,1012.23
2018-01-07T01:05:57.271Z,1012.22
2018-01-07T01:07:06.218Z,1012.28
2018-01-07T01:08:15.167Z,1012.24
2018-01-07T01:09:24.363Z,1012.3
2018-01-07T01:10:33.587Z,1012.31
2018-01-07T01:11:43.319Z,1012.29
2018-01-07T01:12:52.256Z,1012.32
2018-01-07T01:14:01.201Z,1012.35
2018-01-07T01:15:10.159Z,1012.37
2018-01-07T01:16:19.392Z,1012.4
2018-01-07T01:17:28.324Z,1012.4
2018-01-07T01:18:37.793Z,1012.44
2018-01-07T01:19:46.993Z,1012.46
2018-01-07T01:20:55.668Z,1012.46
2018-01-07T01:22:04.867Z,1012.47
2018-01-07T01:23:13.808Z,1012.51
2018-01-07T01:24:22.490Z,1012.54
2018-01-07T01:25:31.688Z,1012.57
2018-01-07T01:26:40.877Z,1012.6
2018-01-07T01:27:49.554Z,1012.6
2018-01-07T01:28:58.231Z,1012.66
2018-01-07T01:30:07.176Z,1012.65
2018-01-07T01:31:15.842Z,1012.7
2018-01-07T01:32:25.316Z,1012.74
2018-01-07T01:33:34.260Z,1012.76
2018-01-07T01:34:43.453Z,1012.77
2018-01-07T01:35:52.657Z,1012.8
2018-01-07T01:37:02.392Z,1012.84
2018-01-07T01:38:11.585Z,1012.82
2018-01-07T01:39:20.518Z,1012.85
2018-01-07T01:40:29.983Z,1012.83
2018-01-07T01:41:39.186Z,1012.88
2018-01-07T01:42:48.663Z,1012.84
2018-01-07T01:43:57.603Z,1012.9
2018-01-07T01:45:06.540Z,1012.92
2018-01-07T01:46:15.473Z,1012.93
2018-01-07T01:47:24.406Z,1012.97
2018-01-07T01:48:33.361Z,1012.98
2018-01-07T01:49:42.030Z,1012.99
2018-01-07T01:50:51.750Z,1012.98
2018-01-07T01:52:01.220Z,1013.04
2018-01-07T01:53:10.164Z,1013.09
2018-01-07T01:54:18.864Z,1013.08
2018-01-07T01:55:27.529Z,1013.11
2018-01-07T01:56:36.740Z,1013.1
2018-01-07T01:57:45.668Z,1013.14
2018-01-07T01:58:54.344Z,1013.18
2018-01-07T02:00:03.809Z,1013.19
2018-01-07T02:01:13.071Z,1013.2
2018-01-07T02:02:22.265Z,1013.21
2018-01-07T02:03:30.948Z,1013.21
2018-01-07T02:04:40.147Z,1013.22
2018-01-07T02:05:49.347Z,1013.24
2018-01-07T02:06:58.278Z,1013.24
2018-01-07T02:08:07.207Z,1013.3
2018-01-07T02:09:16.146Z,1013.21
2018-01-07T02:10:24.831Z,1013.24
2018-01-07T02:11:34.290Z,1013.28
2018-01-07T02:12:43.756Z,1013.23
2018-01-07T02:13:52.699Z,1013.28
2018-01-07T02:15:02.418Z,1013.29
2018-01-07T02:16:11.370Z,1013.31
2018-01-07T02:17:20.573Z,1013.37
2018-01-07T02:18:30.294Z,1013.37
2018-01-07T02:19:39.506Z,1013.44
2018-01-07T02:20:48.704Z,1013.43
2018-01-07T02:21:58.427Z,1013.43
2018-01-07T02:23:08.146Z,1013.45
2018-01-07T02:24:17.343Z,1013.47
2018-01-07T02:25:26.330Z,1013.48
2018-01-07T02:26:34.995Z,1013.46
2018-01-07T02:27:44.193Z,1013.48
2018-01-07T02:28:53.134Z,1013.5
2018-01-07T02:30:02.864Z,1013.53
2018-01-07T02:31:12.065Z,1013.58
2018-01-07T02:32:21.323Z,1013.61
2018-01-07T02:33:30.780Z,1013.63
2018-01-07T02:34:39.984Z,1013.62
2018-01-07T02:35:49.200Z,1013.62
2018-01-07T02:36:58.917Z,1013.66
2018-01-07T02:38:08.375Z,1013.67
2018-01-07T02:39:17.314Z,1013.73
2018-01-07T02:40:26.802Z,1013.7
2018-01-07T02:41:36.273Z,1013.74
2018-01-07T02:42:45.720Z,1013.77
2018-01-07T02:43:55.181Z,1013.79
2018-01-07T02:45:04.376Z,1013.8
2018-01-07T02:46:13.859Z,1013.81
2018-01-07T02:47:23.577Z,1013.85
2018-01-07T02:48:32.522Z,1013.85
2018-01-07T02:49:41.479Z,1013.82
2018-01-07T02:50:51.204Z,1013.85
2018-01-07T02:52:00.418Z,1013.86
2018-01-07T02:53:09.887Z,1013.87
2018-01-07T02:54:19.080Z,1013.91
2018-01-07T02:55:28.285Z,1013.93
2018-01-07T02:56:37.520Z,1013.92
2018-01-07T02:57:46.477Z,1013.94
2018-01-07T02:58:55.427Z,1013.89
2018-01-07T03:00:05.165Z,1013.9
2018-01-07T03:01:14.631Z,1013.94
2018-01-07T03:02:23.832Z,1013.95
2018-01-07T03:03:33.064Z,1014
2018-01-07T03:04:42.015Z,1014.01
2018-01-07T03:05:51.219Z,1013.99
2018-01-07T03:06:59.902Z,1014.04
2018-01-07T03:08:08.571Z,1014.08
2018-01-07T03:09:17.765Z,1014.07
2018-01-07T03:10:27.217Z,1014.11
2018-01-07T03:11:36.146Z,1014.11
2018-01-07T03:12:45.094Z,1014.11
2018-01-07T03:13:54.309Z,1014.14
2018-01-07T03:15:02.993Z,1014.15
2018-01-07T03:16:12.517Z,1014.18
2018-01-07T03:17:21.795Z,1014.22
2018-01-07T03:18:30.740Z,1014.24
2018-01-07T03:19:39.929Z,1014.23
2018-01-07T03:20:48.881Z,1014.23
2018-01-07T03:21:57.820Z,1014.23
2018-01-07T03:23:07.274Z,1014.23
2018-01-07T03:24:16.476Z,1014.19
2018-01-07T03:25:25.159Z,1014.22
2018-01-07T03:26:33.836Z,1014.19
2018-01-07T03:27:42.518Z,1014.17
2018-01-07T03:28:52.234Z,1014.2
2018-01-07T03:30:01.431Z,1014.19
2018-01-07T03:31:10.640Z,1014.2
2018-01-07T03:32:19.846Z,1014.17
2018-01-07T03:33:28.774Z,1014.18
2018-01-07T03:34:37.718Z,1014.19
2018-01-07T03:35:46.919Z,1014.21
2018-01-07T03:36:56.115Z,1014.2
2018-01-07T03:38:05.314Z,1014.2
2018-01-07T03:39:14.508Z,1014.24
2018-01-07T03:40:23.449Z,1014.22
2018-01-07T03:41:32.647Z,1014.26
2018-01-07T03:42:42.099Z,1014.24
2018-01-07T03:43:51.296Z,1014.27
2018-01-07T03:45:00.491Z,1014.25
2018-01-07T03:46:09.946Z,1014.29
2018-01-07T03:47:19.402Z,1014.34
2018-01-07T03:48:28.340Z,1014.32
2018-01-07T03:49:37.013Z,1014.34
2018-01-07T03:50:45.942Z,1014.33
2018-01-07T03:51:54.880Z,1014.37
2018-01-07T03:53:04.079Z,1014.3
2018-01-07T03:54:12.763Z,1014.34
2018-01-07T03:55:21.710Z,1014.32
2018-01-07T03:56:30.651Z,1014.32
2018-01-07T03:57:39.858Z,1014.29
2018-01-07T03:58:48.535Z,1014.31
2018-01-07T03:59:57.468Z,1014.3
2018-01-07T04:01:06.401Z,1014.4
2018-01-07T04:02:15.591Z,1014.36
2018-01-07T04:03:24.783Z,1014.42
2018-01-07T04:04:33.465Z,1014.44
2018-01-07T04:05:42.426Z,1014.43
2018-01-07T04:06:52.404Z,1014.46
2018-01-07T04:08:01.596Z,1014.42
2018-01-07T04:09:10.790Z,1014.45
2018-01-07T04:10:19.729Z,1014.44
2018-01-07T04:11:29.184Z,1014.43
2018-01-07T04:12:38.388Z,1014.42
2018-01-07T04:13:48.163Z,1014.41
2018-01-07T04:14:57.359Z,1014.4
2018-01-07T04:16:06.284Z,1014.35
2018-01-07T04:17:15.487Z,1014.35
2018-01-07T04:18:24.975Z,1014.38
2018-01-07T04:19:34.430Z,1014.39
2018-01-07T04:20:43.114Z,1014.42
2018-01-07T04:21:52.316Z,1014.44
2018-01-07T04:23:01.771Z,1014.47
2018-01-07T04:24:10.452Z,1014.46
2018-01-07T04:25:19.396Z,1014.51
2018-01-07T04:26:28.874Z,1014.56
2018-01-07T04:27:37.830Z,1014.55
2018-01-07T04:28:46.759Z,1014.56
2018-01-07T04:29:55.697Z,1014.53
2018-01-07T04:31:04.384Z,1014.57
2018-01-07T04:32:13.328Z,1014.53
2018-01-07T04:33:22.267Z,1014.5
2018-01-07T04:34:31.468Z,1014.47
2018-01-07T04:35:40.414Z,1014.52
2018-01-07T04:36:49.904Z,1014.52
2018-01-07T04:37:59.107Z,1014.55
2018-01-07T04:39:08.308Z,1014.57
2018-01-07T04:40:17.248Z,1014.51
2018-01-07T04:41:26.443Z,1014.55
2018-01-07T04:42:35.396Z,1014.57
2018-01-07T04:43:44.348Z,1014.6
2018-01-07T04:44:53.549Z,1014.63
2018-01-07T04:46:02.492Z,1014.61
2018-01-07T04:47:11.448Z,1014.65
2018-01-07T04:48:20.197Z,1014.62
2018-01-07T04:49:29.138Z,1014.62
2018-01-07T04:50:38.074Z,1014.61
2018-01-07T04:51:47.042Z,1014.6
2018-01-07T04:52:55.730Z,1014.6
2018-01-07T04:54:04.412Z,1014.62
2018-01-07T04:55:13.356Z,1014.67
2018-01-07T04:56:22.875Z,1014.68
2018-01-07T04:57:32.601Z,1014.66
2018-01-07T05:00:22.854Z,1014.67
2018-01-07T05:01:32.053Z,1014.71
2018-01-07T05:02:41.000Z,1014.69
2018-01-07T05:03:50.263Z,1014.68
2018-01-07T05:04:59.190Z,1014.69
2018-01-07T05:06:08.387Z,1014.76
2018-01-07T05:07:17.586Z,1014.74
2018-01-07T05:08:26.268Z,1014.73
2018-01-07T05:09:35.208Z,1014.74
2018-01-07T05:10:44.410Z,1014.78
2018-01-07T05:11:53.630Z,1014.79
2018-01-07T05:13:02.569Z,1014.78
2018-01-07T05:14:11.511Z,1014.86
2018-01-07T05:15:20.729Z,1014.87
2018-01-07T05:16:29.930Z,1014.85
2018-01-07T05:17:38.875Z,1014.92
2018-01-07T05:18:48.068Z,1014.86
2018-01-07T05:19:57.274Z,1014.92
2018-01-07T05:21:06.737Z,1014.9
2018-01-07T05:22:15.694Z,1014.93
2018-01-07T05:23:24.380Z,1014.94
2018-01-07T05:24:33.588Z,1014.91
2018-01-07T05:25:42.514Z,1014.98
2018-01-07T05:26:51.448Z,1015.01
2018-01-07T05:28:00.913Z,1015.01
2018-01-07T05:29:09.585Z,1015.1
2018-01-07T05:30:18.250Z,1015.09
2018-01-07T05:31:27.453Z,1015.09
2018-01-07T05:32:36.910Z,1015.13
2018-01-07T05:33:45.658Z,1015.11
2018-01-07T05:34:55.383Z,1015.17
2018-01-07T05:36:04.337Z,1015.13
2018-01-07T05:37:13.791Z,1015.16
2018-01-07T05:38:22.831Z,1015.11
2018-01-07T05:39:31.772Z,1015.19
2018-01-07T05:40:41.482Z,1015.12
2018-01-07T05:41:51.210Z,1015.21
2018-01-07T05:43:00.411Z,1015.26
2018-01-07T05:44:09.618Z,1015.22
2018-01-07T05:45:18.562Z,1015.26
2018-01-07T05:46:27.785Z,1015.28
2018-01-07T05:47:36.460Z,1015.33
2018-01-07T05:48:45.981Z,1015.32
2018-01-07T05:49:54.934Z,1015.34
2018-01-07T05:51:03.888Z,1015.34
2018-01-07T05:52:12.847Z,1015.37
2018-01-07T05:53:22.059Z,1015.4
2018-01-07T05:54:30.997Z,1015.47
2018-01-07T05:55:40.223Z,1015.44
2018-01-07T05:56:49.696Z,1015.43
2018-01-07T05:57:59.179Z,1015.46
2018-01-07T05:59:08.891Z,1015.42
2018-01-07T06:00:18.343Z,1015.45
2018-01-07T06:01:27.552Z,1015.5
2018-01-07T06:02:36.496Z,1015.48
2018-01-07T06:03:45.450Z,1015.49
2018-01-07T06:04:54.910Z,1015.47
2018-01-07T06:06:04.374Z,1015.53
2018-01-07T06:07:13.062Z,1015.54
2018-01-07T06:08:22.255Z,1015.62
2018-01-07T06:09:31.201Z,1015.6
2018-01-07T06:10:40.143Z,1015.66
2018-01-07T06:11:49.090Z,1015.66
2018-01-07T06:12:58.042Z,1015.77
2018-01-07T06:14:07.245Z,1015.78
2018-01-07T06:15:16.701Z,1015.76
2018-01-07T06:16:25.906Z,1015.75
2018-01-07T06:17:34.903Z,1015.8
2018-01-07T06:18:43.842Z,1015.82
2018-01-07T06:19:52.518Z,1015.85
2018-01-07T06:21:01.716Z,1015.85
2018-01-07T06:22:10.399Z,1015.94
2018-01-07T06:23:19.876Z,1015.93
2018-01-07T06:24:29.317Z,1015.96
2018-01-07T06:25:38.260Z,1015.97
2018-01-07T06:26:46.933Z,1015.95
2018-01-07T06:27:56.913Z,1016.02
2018-01-07T06:29:06.121Z,1016.01
2018-01-07T06:30:15.046Z,1016.01
2018-01-07T06:31:24.239Z,1016.01
2018-01-07T06:32:33.964Z,1015.97
2018-01-07T06:33:43.152Z,1016.08
2018-01-07T06:34:52.624Z,1016.04
2018-01-07T06:36:01.587Z,1016.08
2018-01-07T06:37:10.789Z,1016.09
2018-01-07T06:38:19.996Z,1016.14
2018-01-07T06:39:28.949Z,1016.16
2018-01-07T06:40:38.150Z,1016.13
2018-01-07T06:41:47.350Z,1016.15
2018-01-07T06:42:57.137Z,1016.2
2018-01-07T06:44:06.086Z,1016.2
2018-01-07T06:45:15.290Z,1016.21
2018-01-07T06:46:24.748Z,1016.26
2018-01-07T06:47:34.209Z,1016.25
2018-01-07T06:48:43.677Z,1016.28
2018-01-07T06:49:52.625Z,1016.27
2018-01-07T06:51:01.318Z,1016.31
2018-01-07T06:52:10.546Z,1016.24
2018-01-07T06:53:19.494Z,1016.31
2018-01-07T06:54:28.676Z,1016.28
2018-01-07T06:55:38.173Z,1016.32
2018-01-07T06:56:47.376Z,1016.36
2018-01-07T06:57:56.315Z,1016.39
2018-01-07T06:59:05.532Z,1016.36
2018-01-07T07:00:14.749Z,1016.33
2018-01-07T07:01:23.949Z,1016.45
2018-01-07T07:02:33.154Z,1016.47
2018-01-07T07:03:42.386Z,1016.52
2018-01-07T07:04:51.319Z,1016.54
2018-01-07T07:06:00.520Z,1016.63
2018-01-07T07:07:09.724Z,1016.66
2018-01-07T07:08:18.688Z,1016.7
2018-01-07T07:09:27.367Z,1016.73
2018-01-07T07:10:36.331Z,1016.71
2018-01-07T07:11:45.275Z,1016.74
2018-01-07T07:12:54.753Z,1016.78
2018-01-07T07:14:03.693Z,1016.79
2018-01-07T07:15:12.625Z,1016.85
2018-01-07T07:16:21.843Z,1016.9
2018-01-07T07:17:31.309Z,1016.97
2018-01-07T07:18:40.521Z,1016.99
2018-01-07T07:19:49.471Z,1016.96
2018-01-07T07:20:58.677Z,1016.98
2018-01-07T07:22:07.368Z,1017.04
2018-01-07T07:23:16.330Z,1017.06
2018-01-07T07:24:25.527Z,1017.07
2018-01-07T07:25:34.732Z,1017.1
2018-01-07T07:26:44.705Z,1017.14
2018-01-07T07:27:53.652Z,1017.22
2018-01-07T07:29:02.599Z,1017.19
2018-01-07T07:30:11.801Z,1017.28
2018-01-07T07:31:21.019Z,1017.28
2018-01-07T07:32:30.234Z,1017.24
2018-01-07T07:33:39.182Z,1017.26
2018-01-07T07:34:48.133Z,1017.25
2018-01-07T07:35:57.601Z,1017.25
2018-01-07T07:37:06.566Z,1017.29
2018-01-07T07:38:15.535Z,1017.29
2018-01-07T07:39:25.025Z,1017.33
2018-01-07T07:40:33.992Z,1017.31
2018-01-07T07:41:43.210Z,1017.32
2018-01-07T07:42:52.940Z,1017.36
2018-01-07T07:44:01.616Z,1017.32
2018-01-07T07:45:11.089Z,1017.38
2018-01-07T07:46:20.553Z,1017.38
2018-01-07T07:47:29.752Z,1017.4
2018-01-07T07:48:38.691Z,1017.41
2018-01-07T07:49:48.201Z,1017.38
2018-01-07T07:50:57.404Z,1017.37
2018-01-07T07:52:06.614Z,1017.38
2018-01-07T07:53:15.563Z,1017.35
2018-01-07T07:54:24.777Z,1017.37
2018-01-07T07:55:33.740Z,1017.33
2018-01-07T07:56:42.420Z,1017.39
2018-01-07T07:57:51.632Z,1017.4
2018-01-07T07:59:00.849Z,1017.46
2018-01-07T08:00:10.319Z,1017.48
2018-01-07T08:01:19.525Z,1017.49
2018-01-07T08:02:28.486Z,1017.52
2018-01-07T08:03:37.436Z,1017.51
2018-01-07T08:04:46.648Z,1017.52
2018-01-07T08:05:55.333Z,1017.48
2018-01-07T08:07:03.999Z,1017.5
2018-01-07T08:08:12.974Z,1017.51
2018-01-07T08:09:22.435Z,1017.54
2018-01-07T08:10:31.121Z,1017.59
2018-01-07T08:11:40.592Z,1017.68
2018-01-07T08:12:50.056Z,1017.71
2018-01-07T08:13:58.731Z,1017.79
2018-01-07T08:15:07.665Z,1017.76
2018-01-07T08:16:17.133Z,1017.76
2018-01-07T08:17:26.878Z,1017.75
2018-01-07T08:18:35.810Z,1017.76
2018-01-07T08:19:45.292Z,1017.82
2018-01-07T08:20:54.511Z,1017.83
2018-01-07T08:22:03.719Z,1017.89
2018-01-07T08:23:13.200Z,1017.84
2018-01-07T08:24:22.408Z,1017.89
2018-01-07T08:25:31.621Z,1017.93
2018-01-07T08:26:40.831Z,1017.97
2018-01-07T08:27:50.046Z,1017.99
2018-01-07T08:28:58.996Z,1018.08
2018-01-07T08:30:08.196Z,1018.08
2018-01-07T08:31:17.144Z,1018.13
2018-01-07T08:32:26.373Z,1018.07
2018-01-07T08:33:35.581Z,1018.15
2018-01-07T08:34:44.528Z,1018.09
2018-01-07T08:35:53.982Z,1018.12
2018-01-07T08:37:02.934Z,1018.11
2018-01-07T08:38:12.392Z,1018.14
2018-01-07T08:39:21.870Z,1018.14
2018-01-07T08:40:31.080Z,1018.16
2018-01-07T08:41:40.036Z,1018.16
2018-01-07T08:42:48.988Z,1018.17
2018-01-07T08:43:58.200Z,1018.18
2018-01-07T08:45:07.172Z,1018.22
2018-01-07T08:46:16.634Z,1018.23
2018-01-07T08:47:25.317Z,1018.23
2018-01-07T08:48:34.513Z,1018.32
2018-01-07T08:49:43.786Z,1018.3
2018-01-07T08:50:52.745Z,1018.31
2018-01-07T08:52:01.692Z,1018.32
2018-01-07T08:53:10.899Z,1018.32
2018-01-07T08:54:19.925Z,1018.31
2018-01-07T08:55:29.119Z,1018.33
2018-01-07T08:56:38.859Z,1018.34
2018-01-07T08:57:48.075Z,1018.36
2018-01-07T08:58:57.349Z,1018.33
2018-01-07T09:00:07.110Z,1018.36
2018-01-07T09:01:16.331Z,1018.45
2018-01-07T09:02:25.350Z,1018.41
2018-01-07T09:03:34.825Z,1018.45
2018-01-07T09:04:44.298Z,1018.5
2018-01-07T09:05:53.259Z,1018.54
2018-01-07T09:07:02.480Z,1018.51
2018-01-07T09:08:11.695Z,1018.58
2018-01-07T09:09:20.923Z,1018.62
2018-01-07T09:10:30.414Z,1018.61
2018-01-07T09:11:39.371Z,1018.6
2018-01-07T09:12:49.161Z,1018.62
2018-01-07T09:13:58.116Z,1018.63
2018-01-07T09:15:07.086Z,1018.6
2018-01-07T09:17:24.999Z,1018.58
2018-01-07T09:18:33.941Z,1018.58
2018-01-07T09:19:43.206Z,1018.61
2018-01-07T09:20:52.632Z,1018.58
2018-01-07T09:22:01.835Z,1018.68
2018-01-07T09:23:10.769Z,1018.7
2018-01-07T09:24:19.969Z,1018.69
2018-01-07T09:25:29.185Z,1018.72
2018-01-07T09:26:38.144Z,1018.72
2018-01-07T09:27:47.417Z,1018.73
2018-01-07T09:28:56.384Z,1018.71
2018-01-07T09:30:05.635Z,1018.72
2018-01-07T09:31:14.586Z,1018.72
2018-01-07T09:32:24.066Z,1018.79
2018-01-07T09:33:33.273Z,1018.74
2018-01-07T09:34:42.212Z,1018.82
2018-01-07T09:35:51.167Z,1018.79
2018-01-07T09:37:00.123Z,1018.83
2018-01-07T09:38:09.077Z,1018.83
2018-01-07T09:39:18.028Z,1018.83
2018-01-07T09:40:27.245Z,1018.84
2018-01-07T09:41:36.198Z,1018.85
2018-01-07T09:42:45.720Z,1018.83
2018-01-07T09:43:54.946Z,1018.86
2018-01-07T09:45:03.888Z,1018.88
2018-01-07T09:46:13.400Z,1018.89
2018-01-07T09:47:22.626Z,1018.93
2018-01-07T09:48:31.852Z,1018.91
2018-01-07T09:49:40.812Z,1018.93
2018-01-07T09:50:49.763Z,1018.95
2018-01-07T09:51:58.955Z,1018.96
2018-01-07T09:53:08.457Z,1018.97
2018-01-07T09:54:17.405Z,1018.97
2018-01-07T09:55:26.619Z,1018.97
2018-01-07T09:56:35.848Z,1018.99
2018-01-07T09:57:45.336Z,1019.04
2018-01-07T09:58:54.798Z,1018.97
2018-01-07T10:00:04.270Z,1019.01
2018-01-07T10:01:13.213Z,1018.99
2018-01-07T10:02:22.932Z,1019.01
2018-01-07T10:03:32.407Z,1018.98
2018-01-07T10:04:41.355Z,1018.97
2018-01-07T10:05:50.583Z,1019
2018-01-07T10:06:59.804Z,1019
2018-01-07T10:08:08.761Z,1019
2018-01-07T10:09:18.023Z,1018.98
2018-01-07T10:10:27.230Z,1019.01
2018-01-07T10:11:36.431Z,1018.99
2018-01-07T10:12:45.714Z,1019.05
2018-01-07T10:13:54.388Z,1019.07
2018-01-07T10:15:03.339Z,1019.09
2018-01-07T10:16:12.297Z,1019.11
2018-01-07T10:17:20.981Z,1019.16
2018-01-07T10:18:29.925Z,1019.14
2018-01-07T10:19:38.907Z,1019.21
2018-01-07T10:20:48.115Z,1019.25
2018-01-07T10:21:56.795Z,1019.23
2018-01-07T10:23:05.486Z,1019.24
2018-01-07T10:24:14.420Z,1019.31
2018-01-07T10:25:23.683Z,1019.33
2018-01-07T10:26:36.122Z,1019.33
2018-01-07T10:27:45.349Z,1019.35
2018-01-07T10:28:54.607Z,1019.45
2018-01-07T10:30:03.800Z,1019.32
2018-01-07T10:31:12.742Z,1019.34
2018-01-07T10:32:22.009Z,1019.32
2018-01-07T10:33:31.222Z,1019.34
2018-01-07T10:34:39.970Z,1019.36
2018-01-07T10:35:49.180Z,1019.32
2018-01-07T10:36:58.387Z,1019.26
2018-01-07T10:38:07.683Z,1019.26
2018-01-07T10:39:16.669Z,1019.23
2018-01-07T10:40:27.282Z,1019.17
2018-01-07T10:41:36.707Z,1019.18
2018-01-07T10:42:45.993Z,1019.31
2018-01-07T10:43:55.229Z,1019.3
2018-01-07T10:45:04.723Z,1019.24
2018-01-07T10:46:13.807Z,1019.23
2018-01-07T10:47:23.514Z,1019.25
2018-01-07T10:48:32.673Z,1019.32
2018-01-07T10:49:42.246Z,1019.28
2018-01-07T10:50:51.199Z,1019.23
2018-01-07T10:52:00.153Z,1019.32
2018-01-07T10:53:09.218Z,1019.27
2018-01-07T10:54:18.441Z,1019.24
2018-01-07T10:55:27.211Z,1019.19
2018-01-07T10:56:35.895Z,1019.22
2018-01-07T10:57:45.353Z,1019.23
2018-01-07T10:58:54.348Z,1019.2
2018-01-07T11:00:03.296Z,1019.29
2018-01-07T11:01:12.540Z,1019.36
2018-01-07T11:02:21.741Z,1019.36
2018-01-07T11:03:30.956Z,1019.37
2018-01-07T11:04:39.958Z,1019.43
2018-01-07T11:05:48.664Z,1019.4
2018-01-07T11:06:58.399Z,1019.35
2018-01-07T11:08:07.344Z,1019.4
2018-01-07T11:09:16.553Z,1019.44
2018-01-07T11:10:25.800Z,1019.36
2018-01-07T11:11:34.485Z,1019.37
2018-01-07T11:12:43.732Z,1019.35
2018-01-07T11:13:53.517Z,1019.38
2018-01-07T11:15:02.845Z,1019.28
2018-01-07T11:16:12.587Z,1019.34
2018-01-07T11:17:21.554Z,1019.35
2018-01-07T11:18:31.318Z,1019.29
2018-01-07T11:19:40.573Z,1019.31
2018-01-07T11:20:50.524Z,1019.35
2018-01-07T11:21:59.223Z,1019.27
2018-01-07T11:23:08.501Z,1019.26
2018-01-07T11:24:18.817Z,1019.36
2018-01-07T11:25:28.512Z,1019.3
2018-01-07T11:26:39.134Z,1019.26
2018-01-07T11:27:48.619Z,1019.3
2018-01-07T11:28:57.996Z,1019.28
2018-01-07T11:30:07.747Z,1019.24
2018-01-07T11:31:18.040Z,1019.27
2018-01-07T11:32:27.309Z,1019.24
2018-01-07T11:33:37.145Z,1019.26
2018-01-07T11:34:46.086Z,1019.25
2018-01-07T11:35:55.467Z,1019.21
2018-01-07T11:37:04.622Z,1019.29
2018-01-07T11:38:14.530Z,1019.26
2018-01-07T11:39:24.255Z,1019.26
2018-01-07T11:40:34.210Z,1019.23
2018-01-07T11:41:44.119Z,1019.18
2018-01-07T11:42:53.329Z,1019.26
2018-01-07T11:44:02.282Z,1019.22
2018-01-07T11:45:10.970Z,1019.17
2018-01-07T11:46:20.442Z,1019.22
2018-01-07T11:47:30.232Z,1019.18
2018-01-07T11:48:39.177Z,1019.24
2018-01-07T11:49:48.863Z,1019.15
2018-01-07T11:50:57.839Z,1019.21
2018-01-07T11:52:06.804Z,1019.16
2018-01-07T11:53:15.822Z,1019.12
2018-01-07T11:54:25.286Z,1019.15
2018-01-07T11:55:34.509Z,1019.12
2018-01-07T11:56:43.488Z,1019.13
2018-01-07T11:57:52.964Z,1019.15
2018-01-07T11:59:01.923Z,1019.14
2018-01-07T12:00:11.150Z,1019.12
2018-01-07T12:01:20.621Z,1019.16
2018-01-07T12:02:29.830Z,1019.14
2018-01-07T12:03:39.072Z,1019.16
2018-01-07T12:04:48.298Z,1019.11
2018-01-07T12:05:56.976Z,1019.08
2018-01-07T12:07:06.207Z,1019.1
2018-01-07T12:08:15.950Z,1019.09
2018-01-07T12:09:24.632Z,1019.02
2018-01-07T12:10:34.176Z,1019
2018-01-07T12:11:43.134Z,1019.04
2018-01-07T12:12:52.611Z,1019.02
2018-01-07T12:14:01.575Z,1019.08
2018-01-07T12:15:11.054Z,1019.04
2018-01-07T12:16:20.323Z,1018.97
2018-01-07T12:17:29.013Z,1019.03
2018-01-07T12:18:37.968Z,1018.97
2018-01-07T12:19:46.926Z,1018.98
2018-01-07T12:20:55.890Z,1019.05
2018-01-07T12:22:04.826Z,1018.95
2018-01-07T12:23:14.045Z,1018.96
2018-01-07T12:24:22.984Z,1018.94
2018-01-07T12:25:31.933Z,1018.98
2018-01-07T12:26:40.615Z,1018.92
2018-01-07T12:27:49.562Z,1018.92
2018-01-07T12:28:58.775Z,1018.9
2018-01-07T12:30:08.506Z,1018.87
2018-01-07T12:31:17.986Z,1018.87
2018-01-07T12:32:26.999Z,1018.89
2018-01-07T12:33:36.215Z,1018.86
2018-01-07T12:34:45.912Z,1018.81
2018-01-07T12:35:54.883Z,1018.84
2018-01-07T12:37:03.835Z,1018.82
2018-01-07T12:38:13.048Z,1018.79
2018-01-07T12:39:22.251Z,1018.75
2018-01-07T12:40:32.256Z,1018.82
2018-01-07T12:41:41.493Z,1018.78
2018-01-07T12:42:50.761Z,1018.82
2018-01-07T12:43:59.922Z,1018.78
2018-01-07T12:45:09.384Z,1018.77
2018-01-07T12:46:18.590Z,1018.79
2018-01-07T12:47:27.540Z,1018.7
2018-01-07T12:48:36.744Z,1018.72
2018-01-07T12:49:45.697Z,1018.68
2018-01-07T12:50:54.384Z,1018.71
2018-01-07T12:52:03.591Z,1018.67
2018-01-07T12:53:12.283Z,1018.68
2018-01-07T12:54:21.506Z,1018.73
2018-01-07T12:55:30.218Z,1018.7
2018-01-07T12:56:39.160Z,1018.7
2018-01-07T12:57:48.104Z,1018.69
2018-01-07T12:58:57.050Z,1018.64
2018-01-07T13:00:06.291Z,1018.66
2018-01-07T13:01:15.251Z,1018.63
2018-01-07T13:02:24.206Z,1018.56
2018-01-07T13:03:33.466Z,1018.58
2018-01-07T13:04:42.457Z,1018.56
2018-01-07T13:05:51.666Z,1018.63
2018-01-07T13:07:01.161Z,1018.61
2018-01-07T13:08:10.899Z,1018.57
2018-01-07T13:09:20.113Z,1018.56
2018-01-07T13:10:29.071Z,1018.59
2018-01-07T13:11:38.281Z,1018.6
2018-01-07T13:12:47.504Z,1018.6
2018-01-07T13:13:56.444Z,1018.59
2018-01-07T13:15:05.669Z,1018.63
2018-01-07T13:16:14.360Z,1018.54
2018-01-07T13:17:23.831Z,1018.51
2018-01-07T13:18:32.767Z,1018.56
2018-01-07T13:19:41.752Z,1018.48
2018-01-07T13:20:50.970Z,1018.44
2018-01-07T13:21:59.920Z,1018.48
2018-01-07T13:23:09.135Z,1018.54
2018-01-07T13:24:18.367Z,1018.5
2018-01-07T13:25:27.572Z,1018.49
2018-01-07T13:26:36.525Z,1018.5
2018-01-07T13:27:45.483Z,1018.43
2018-01-07T13:28:54.976Z,1018.49
2018-01-07T13:30:04.189Z,1018.45
2018-01-07T13:31:13.662Z,1018.49
2018-01-07T13:32:22.915Z,1018.55
2018-01-07T13:33:31.862Z,1018.55
2018-01-07T13:34:41.084Z,1018.58
2018-01-07T13:35:50.564Z,1018.49
2018-01-07T13:36:59.514Z,1018.51
2018-01-07T13:38:08.987Z,1018.55
2018-01-07T13:39:18.194Z,1018.53
2018-01-07T13:40:27.670Z,1018.52
2018-01-07T13:41:36.881Z,1018.58
2018-01-07T13:42:45.854Z,1018.56
2018-01-07T13:43:55.304Z,1018.54
2018-01-07T13:45:04.270Z,1018.6
2018-01-07T13:46:13.234Z,1018.58
2018-01-07T13:47:22.443Z,1018.53
2018-01-07T13:48:31.899Z,1018.63
2018-01-07T13:49:41.365Z,1018.54
2018-01-07T13:50:50.051Z,1018.61
2018-01-07T13:51:59.527Z,1018.49
2018-01-07T13:53:09.087Z,1018.55
2018-01-07T13:54:18.563Z,1018.54
2018-01-07T13:55:27.772Z,1018.59
2018-01-07T13:56:36.714Z,1018.59
2018-01-07T13:57:45.943Z,1018.61
2018-01-07T13:58:54.623Z,1018.64
2018-01-07T14:00:04.286Z,1018.59
2018-01-07T14:01:13.491Z,1018.61
2018-01-07T14:02:23.214Z,1018.66